メインページ
METAR-TAF:

METAR-TAF

空港 :

ムルマンスク, ロシア

緯度: 68-58N, 経度: 033-03E, 海抜: 51m

現時点の気象観測

当レポートは41分前の09:00(UTC)に作成
北西の風 4kt
気温 -2°C
湿度 54%
気圧 1008 hPa
視程10km以上
1,500メートル以下は雲なし、積乱雲なし

METAR: ULMM 250900Z 31002MPS CAVOK M02/M10 Q1008 R31/190065 NOSIG RMK QFE748

時間: 12:41 (09:41 UTC)

予報

当レポートは1時間45分前の07:56(UTC)に作成
予報は25日の 09時(UTC)から 26日の 09時(UTC)まで有効
西/南西の風 6kt、最大16ktの突風を伴う
視程: 6000m
高度700ftの雲は散在している
高度1300ftの千切れ雲あり
25日の 09時(UTC)から 26日の 09時(UTC)まで一時的に
南/南西の風 12kt、最大23ktの突風を伴う
視程: 3000m
高度700ftの千切れ雲あり
高度1300ftの千切れ雲あり, 積乱雲.
弱いにわか雪, 靄

TAF: ULMM 250756Z 2509/2609 25003G08MPS 6000 SCT007 BKN013 TEMPO 2509/2609 20006G12MPS 3000 -SHSN BR BKN007 BKN013CB

4,000以上の空港の気象観測と天気予報(METAR報とTAF報)

利用可能な観測所は地図上に黄色い丸と赤い丸で示す。

丸の上にカーソルを重ねると観測所名を参照できる。

次にクリックすると気象観測と天気予報を参照できる。

マップの切り替え:黒色「×」印の緑ボタンをクリックして拡大、「-」印の緑ボタンをクリックして縮小、緑色の三角印をクリックして隣りの地図に切り替え


METAR-TAF: